sensor_id;sensor_type;location;lat;lon;timestamp;temperature;humidity
45619;DHT22;31343;47.520;19.144;2023-06-14T00:01:00;15.20;99.90
45619;DHT22;31343;47.520;19.144;2023-06-14T00:03:30;15.10;99.90
45619;DHT22;31343;47.520;19.144;2023-06-14T00:05:57;15.20;99.90
45619;DHT22;31343;47.520;19.144;2023-06-14T00:08:23;15.10;99.90
45619;DHT22;31343;47.520;19.144;2023-06-14T00:10:50;15.10;99.90
45619;DHT22;31343;47.520;19.144;2023-06-14T00:13:16;15.10;99.90
45619;DHT22;31343;47.520;19.144;2023-06-14T00:15:42;15.10;99.90
45619;DHT22;31343;47.520;19.144;2023-06-14T00:18:08;15.00;99.90
45619;DHT22;31343;47.520;19.144;2023-06-14T00:20:37;15.00;99.90
45619;DHT22;31343;47.520;19.144;2023-06-14T00:23:02;14.90;99.90
45619;DHT22;31343;47.520;19.144;2023-06-14T00:25:29;14.70;99.90
45619;DHT22;31343;47.520;19.144;2023-06-14T00:27:55;14.70;99.90
45619;DHT22;31343;47.520;19.144;2023-06-14T00:30:22;14.60;99.90
45619;DHT22;31343;47.520;19.144;2023-06-14T00:32:48;14.60;99.90
45619;DHT22;31343;47.520;19.144;2023-06-14T00:35:13;14.60;99.90
45619;DHT22;31343;47.520;19.144;2023-06-14T00:37:39;14.70;99.90
45619;DHT22;31343;47.520;19.144;2023-06-14T00:40:06;14.70;99.90
45619;DHT22;31343;47.520;19.144;2023-06-14T00:42:32;14.70;99.90
45619;DHT22;31343;47.520;19.144;2023-06-14T00:44:58;14.70;99.90
45619;DHT22;31343;47.520;19.144;2023-06-14T00:47:24;14.50;99.90
45619;DHT22;31343;47.520;19.144;2023-06-14T00:49:51;14.50;99.90
45619;DHT22;31343;47.520;19.144;2023-06-14T00:52:18;14.50;99.90
45619;DHT22;31343;47.520;19.144;2023-06-14T00:54:44;14.50;99.90
45619;DHT22;31343;47.520;19.144;2023-06-14T00:57:12;14.50;99.90
45619;DHT22;31343;47.520;19.144;2023-06-14T00:59:48;14.50;99.90
45619;DHT22;31343;47.520;19.144;2023-06-14T01:02:14;14.50;99.90
45619;DHT22;31343;47.520;19.144;2023-06-14T01:04:41;14.40;99.90
45619;DHT22;31343;47.520;19.144;2023-06-14T01:12:50;14.50;99.90
45619;DHT22;31343;47.520;19.144;2023-06-14T01:15:20;14.40;99.90
45619;DHT22;31343;47.520;19.144;2023-06-14T01:17:49;14.30;99.90
45619;DHT22;31343;47.520;19.144;2023-06-14T01:20:19;14.30;99.90
45619;DHT22;31343;47.520;19.144;2023-06-14T01:22:55;14.30;99.90
45619;DHT22;31343;47.520;19.144;2023-06-14T01:25:21;14.20;99.90
45619;DHT22;31343;47.520;19.144;2023-06-14T01:27:53;14.20;99.90
45619;DHT22;31343;47.520;19.144;2023-06-14T01:30:21;14.20;99.90
45619;DHT22;31343;47.520;19.144;2023-06-14T01:32:49;14.20;99.90
45619;DHT22;31343;47.520;19.144;2023-06-14T01:35:16;14.10;99.90
45619;DHT22;31343;47.520;19.144;2023-06-14T01:37:43;14.20;99.90
45619;DHT22;31343;47.520;19.144;2023-06-14T01:40:10;14.20;99.90
45619;DHT22;31343;47.520;19.144;2023-06-14T01:42:38;14.10;99.90
45619;DHT22;31343;47.520;19.144;2023-06-14T01:45:06;14.20;99.90
45619;DHT22;31343;47.520;19.144;2023-06-14T01:47:32;14.10;99.90
45619;DHT22;31343;47.520;19.144;2023-06-14T01:49:59;14.10;99.90
45619;DHT22;31343;47.520;19.144;2023-06-14T01:52:24;14.10;99.90
45619;DHT22;31343;47.520;19.144;2023-06-14T01:54:51;14.10;99.90
45619;DHT22;31343;47.520;19.144;2023-06-14T01:57:16;14.00;99.90
45619;DHT22;31343;47.520;19.144;2023-06-14T01:59:42;13.90;99.90
45619;DHT22;31343;47.520;19.144;2023-06-14T02:02:08;14.00;99.90
45619;DHT22;31343;47.520;19.144;2023-06-14T02:04:34;13.90;99.90
45619;DHT22;31343;47.520;19.144;2023-06-14T02:07:00;13.80;99.90
45619;DHT22;31343;47.520;19.144;2023-06-14T02:09:25;13.80;99.90
45619;DHT22;31343;47.520;19.144;2023-06-14T02:11:51;13.80;99.90
45619;DHT22;31343;47.520;19.144;2023-06-14T02:14:17;13.80;99.90
45619;DHT22;31343;47.520;19.144;2023-06-14T02:16:44;13.70;99.90
45619;DHT22;31343;47.520;19.144;2023-06-14T02:19:18;13.60;99.90
45619;DHT22;31343;47.520;19.144;2023-06-14T02:21:44;13.60;99.90
45619;DHT22;31343;47.520;19.144;2023-06-14T02:24:10;13.40;99.90
45619;DHT22;31343;47.520;19.144;2023-06-14T02:26:36;13.50;99.90
45619;DHT22;31343;47.520;19.144;2023-06-14T02:29:06;13.50;99.90
45619;DHT22;31343;47.520;19.144;2023-06-14T02:31:35;13.40;99.90
45619;DHT22;31343;47.520;19.144;2023-06-14T02:34:01;13.40;99.90
45619;DHT22;31343;47.520;19.144;2023-06-14T02:36:27;13.40;99.90
45619;DHT22;31343;47.520;19.144;2023-06-14T02:38:55;13.50;99.90
45619;DHT22;31343;47.520;19.144;2023-06-14T02:41:23;13.30;99.90
45619;DHT22;31343;47.520;19.144;2023-06-14T02:43:49;13.20;99.90
45619;DHT22;31343;47.520;19.144;2023-06-14T02:46:17;13.30;99.90
45619;DHT22;31343;47.520;19.144;2023-06-14T02:48:43;13.10;99.90
45619;DHT22;31343;47.520;19.144;2023-06-14T02:51:09;13.20;99.90
45619;DHT22;31343;47.520;19.144;2023-06-14T02:53:35;13.30;99.90
45619;DHT22;31343;47.520;19.144;2023-06-14T02:56:02;13.30;99.90
45619;DHT22;31343;47.520;19.144;2023-06-14T02:58:29;13.30;99.90
45619;DHT22;31343;47.520;19.144;2023-06-14T03:00:55;13.30;99.90
45619;DHT22;31343;47.520;19.144;2023-06-14T03:03:21;13.40;99.90
45619;DHT22;31343;47.520;19.144;2023-06-14T03:05:50;13.30;99.90
45619;DHT22;31343;47.520;19.144;2023-06-14T03:08:17;13.30;99.90
45619;DHT22;31343;47.520;19.144;2023-06-14T03:10:47;13.40;99.90
45619;DHT22;31343;47.520;19.144;2023-06-14T03:13:14;13.40;99.90
45619;DHT22;31343;47.520;19.144;2023-06-14T03:15:42;13.40;99.90
45619;DHT22;31343;47.520;19.144;2023-06-14T03:18:09;13.40;99.90
45619;DHT22;31343;47.520;19.144;2023-06-14T03:20:35;13.40;99.90
45619;DHT22;31343;47.520;19.144;2023-06-14T03:23:02;13.50;99.90
45619;DHT22;31343;47.520;19.144;2023-06-14T03:25:28;13.50;99.90
45619;DHT22;31343;47.520;19.144;2023-06-14T03:27:57;13.50;99.90
45619;DHT22;31343;47.520;19.144;2023-06-14T03:30:23;13.50;99.90
45619;DHT22;31343;47.520;19.144;2023-06-14T03:32:49;13.60;99.90
45619;DHT22;31343;47.520;19.144;2023-06-14T03:35:17;13.60;99.90
45619;DHT22;31343;47.520;19.144;2023-06-14T03:37:46;13.40;99.90
45619;DHT22;31343;47.520;19.144;2023-06-14T03:40:16;13.40;99.90
45619;DHT22;31343;47.520;19.144;2023-06-14T03:42:42;13.50;99.90
45619;DHT22;31343;47.520;19.144;2023-06-14T03:45:08;13.60;99.90
45619;DHT22;31343;47.520;19.144;2023-06-14T03:47:34;13.70;99.90
45619;DHT22;31343;47.520;19.144;2023-06-14T03:50:02;13.90;99.90
45619;DHT22;31343;47.520;19.144;2023-06-14T03:52:29;13.90;99.90
45619;DHT22;31343;47.520;19.144;2023-06-14T03:54:55;14.00;99.90
45619;DHT22;31343;47.520;19.144;2023-06-14T03:57:22;14.10;99.90
45619;DHT22;31343;47.520;19.144;2023-06-14T03:59:49;14.20;99.90
45619;DHT22;31343;47.520;19.144;2023-06-14T04:02:15;14.20;99.90
45619;DHT22;31343;47.520;19.144;2023-06-14T04:04:44;14.40;99.90
45619;DHT22;31343;47.520;19.144;2023-06-14T04:07:14;14.40;99.90
45619;DHT22;31343;47.520;19.144;2023-06-14T04:09:40;14.30;99.90
45619;DHT22;31343;47.520;19.144;2023-06-14T04:12:07;14.50;99.90
45619;DHT22;31343;47.520;19.144;2023-06-14T04:14:34;14.40;99.90
45619;DHT22;31343;47.520;19.144;2023-06-14T04:17:00;14.30;99.90
45619;DHT22;31343;47.520;19.144;2023-06-14T04:19:26;14.40;99.90
45619;DHT22;31343;47.520;19.144;2023-06-14T04:21:52;14.50;99.90
45619;DHT22;31343;47.520;19.144;2023-06-14T04:24:19;14.70;99.90
45619;DHT22;31343;47.520;19.144;2023-06-14T04:26:45;14.90;99.90
45619;DHT22;31343;47.520;19.144;2023-06-14T04:29:11;15.00;99.90
45619;DHT22;31343;47.520;19.144;2023-06-14T04:31:45;15.10;99.90
45619;DHT22;31343;47.520;19.144;2023-06-14T04:34:12;15.20;99.90
45619;DHT22;31343;47.520;19.144;2023-06-14T04:36:44;15.20;99.90
45619;DHT22;31343;47.520;19.144;2023-06-14T04:39:18;15.40;99.90
45619;DHT22;31343;47.520;19.144;2023-06-14T04:41:44;15.40;99.90
45619;DHT22;31343;47.520;19.144;2023-06-14T04:44:10;15.50;99.90
45619;DHT22;31343;47.520;19.144;2023-06-14T04:46:36;15.40;99.90
45619;DHT22;31343;47.520;19.144;2023-06-14T04:49:17;15.20;99.90
45619;DHT22;31343;47.520;19.144;2023-06-14T04:51:44;15.00;99.90
45619;DHT22;31343;47.520;19.144;2023-06-14T04:54:11;14.90;99.90
45619;DHT22;31343;47.520;19.144;2023-06-14T04:56:39;15.10;99.90
45619;DHT22;31343;47.520;19.144;2023-06-14T04:59:05;15.40;99.90
45619;DHT22;31343;47.520;19.144;2023-06-14T05:01:31;15.50;99.90
45619;DHT22;31343;47.520;19.144;2023-06-14T05:03:58;15.60;99.90
45619;DHT22;31343;47.520;19.144;2023-06-14T05:06:24;15.70;99.90
45619;DHT22;31343;47.520;19.144;2023-06-14T05:08:49;15.90;99.90
45619;DHT22;31343;47.520;19.144;2023-06-14T05:11:16;15.90;99.90
45619;DHT22;31343;47.520;19.144;2023-06-14T05:13:44;16.10;99.90
45619;DHT22;31343;47.520;19.144;2023-06-14T05:16:11;16.20;99.90
45619;DHT22;31343;47.520;19.144;2023-06-14T05:18:37;16.30;99.90
45619;DHT22;31343;47.520;19.144;2023-06-14T05:21:04;16.30;99.90
45619;DHT22;31343;47.520;19.144;2023-06-14T05:23:31;16.30;99.90
45619;DHT22;31343;47.520;19.144;2023-06-14T05:25:56;16.40;99.90
45619;DHT22;31343;47.520;19.144;2023-06-14T05:28:24;16.80;99.90
45619;DHT22;31343;47.520;19.144;2023-06-14T05:30:49;17.10;99.90
45619;DHT22;31343;47.520;19.144;2023-06-14T05:33:16;17.40;99.90
45619;DHT22;31343;47.520;19.144;2023-06-14T05:35:42;18.10;99.90
45619;DHT22;31343;47.520;19.144;2023-06-14T05:38:07;18.20;99.90
45619;DHT22;31343;47.520;19.144;2023-06-14T05:40:34;19.20;99.90
45619;DHT22;31343;47.520;19.144;2023-06-14T05:43:00;19.90;99.90
45619;DHT22;31343;47.520;19.144;2023-06-14T05:45:25;20.50;99.90
45619;DHT22;31343;47.520;19.144;2023-06-14T05:47:52;20.40;99.90
45619;DHT22;31343;47.520;19.144;2023-06-14T05:50:20;20.60;99.90
45619;DHT22;31343;47.520;19.144;2023-06-14T05:52:46;19.60;99.90
45619;DHT22;31343;47.520;19.144;2023-06-14T05:55:11;19.40;99.90
45619;DHT22;31343;47.520;19.144;2023-06-14T05:57:38;20.50;99.90
45619;DHT22;31343;47.520;19.144;2023-06-14T06:00:05;21.70;99.90
45619;DHT22;31343;47.520;19.144;2023-06-14T06:02:40;21.70;98.30
45619;DHT22;31343;47.520;19.144;2023-06-14T06:05:09;21.60;99.30
45619;DHT22;31343;47.520;19.144;2023-06-14T06:07:35;22.60;97.50
45619;DHT22;31343;47.520;19.144;2023-06-14T06:10:01;22.50;97.70
45619;DHT22;31343;47.520;19.144;2023-06-14T06:12:27;23.70;96.30
45619;DHT22;31343;47.520;19.144;2023-06-14T06:14:52;24.90;94.40
45619;DHT22;31343;47.520;19.144;2023-06-14T06:17:19;24.20;93.80
45619;DHT22;31343;47.520;19.144;2023-06-14T06:19:45;24.30;93.90
45619;DHT22;31343;47.520;19.144;2023-06-14T06:22:11;24.10;94.10
45619;DHT22;31343;47.520;19.144;2023-06-14T06:24:36;25.20;93.60
45619;DHT22;31343;47.520;19.144;2023-06-14T06:27:02;25.60;91.80
45619;DHT22;31343;47.520;19.144;2023-06-14T06:29:28;24.20;92.90
45619;DHT22;31343;47.520;19.144;2023-06-14T06:31:54;24.10;93.60
45619;DHT22;31343;47.520;19.144;2023-06-14T06:34:21;23.30;94.20
45619;DHT22;31343;47.520;19.144;2023-06-14T06:36:47;23.40;94.50
45619;DHT22;31343;47.520;19.144;2023-06-14T06:39:13;23.80;94.40
45619;DHT22;31343;47.520;19.144;2023-06-14T06:41:40;23.60;93.70
45619;DHT22;31343;47.520;19.144;2023-06-14T06:44:06;22.50;95.10
45619;DHT22;31343;47.520;19.144;2023-06-14T06:46:33;21.90;96.90
45619;DHT22;31343;47.520;19.144;2023-06-14T06:48:59;22.40;96.50
45619;DHT22;31343;47.520;19.144;2023-06-14T06:51:25;23.10;95.90
45619;DHT22;31343;47.520;19.144;2023-06-14T06:53:55;22.80;95.80
45619;DHT22;31343;47.520;19.144;2023-06-14T06:56:21;21.60;96.90
45619;DHT22;31343;47.520;19.144;2023-06-14T06:58:51;21.70;98.10
45619;DHT22;31343;47.520;19.144;2023-06-14T07:01:17;20.90;98.90
45619;DHT22;31343;47.520;19.144;2023-06-14T07:03:43;20.90;99.60
45619;DHT22;31343;47.520;19.144;2023-06-14T07:06:09;21.00;99.70
45619;DHT22;31343;47.520;19.144;2023-06-14T07:08:36;21.40;99.20
45619;DHT22;31343;47.520;19.144;2023-06-14T07:11:04;21.70;98.10
45619;DHT22;31343;47.520;19.144;2023-06-14T07:13:30;21.60;98.10
45619;DHT22;31343;47.520;19.144;2023-06-14T07:15:59;21.60;98.30
45619;DHT22;31343;47.520;19.144;2023-06-14T07:18:26;21.20;98.60
45619;DHT22;31343;47.520;19.144;2023-06-14T07:20:52;21.00;98.20
45619;DHT22;31343;47.520;19.144;2023-06-14T07:23:22;20.60;99.00
45619;DHT22;31343;47.520;19.144;2023-06-14T07:25:48;20.30;99.20
45619;DHT22;31343;47.520;19.144;2023-06-14T07:28:15;20.00;99.90
45619;DHT22;31343;47.520;19.144;2023-06-14T07:30:42;20.50;99.90
45619;DHT22;31343;47.520;19.144;2023-06-14T07:33:08;21.00;98.80
45619;DHT22;31343;47.520;19.144;2023-06-14T07:35:34;21.40;98.40
45619;DHT22;31343;47.520;19.144;2023-06-14T07:38:00;20.90;96.80
45619;DHT22;31343;47.520;19.144;2023-06-14T07:40:26;20.70;97.60
45619;DHT22;31343;47.520;19.144;2023-06-14T07:42:53;20.70;97.60
45619;DHT22;31343;47.520;19.144;2023-06-14T07:45:20;20.90;97.50
45619;DHT22;31343;47.520;19.144;2023-06-14T07:47:47;21.20;97.40
45619;DHT22;31343;47.520;19.144;2023-06-14T07:50:13;21.60;97.30
45619;DHT22;31343;47.520;19.144;2023-06-14T07:52:39;21.90;97.40
45619;DHT22;31343;47.520;19.144;2023-06-14T07:55:05;21.90;96.10
45619;DHT22;31343;47.520;19.144;2023-06-14T07:57:31;21.50;97.00
45619;DHT22;31343;47.520;19.144;2023-06-14T07:59:58;21.20;97.40
45619;DHT22;31343;47.520;19.144;2023-06-14T08:02:24;21.20;97.90
45619;DHT22;31343;47.520;19.144;2023-06-14T08:04:49;21.20;97.80
45619;DHT22;31343;47.520;19.144;2023-06-14T08:07:15;21.40;96.90
45619;DHT22;31343;47.520;19.144;2023-06-14T08:09:43;21.10;97.50
45619;DHT22;31343;47.520;19.144;2023-06-14T08:12:09;21.20;97.70
45619;DHT22;31343;47.520;19.144;2023-06-14T08:14:39;21.60;97.80
45619;DHT22;31343;47.520;19.144;2023-06-14T08:17:05;21.90;96.60
45619;DHT22;31343;47.520;19.144;2023-06-14T08:19:31;22.00;96.80
45619;DHT22;31343;47.520;19.144;2023-06-14T08:21:56;22.30;96.00
45619;DHT22;31343;47.520;19.144;2023-06-14T08:24:22;22.40;96.20
45619;DHT22;31343;47.520;19.144;2023-06-14T08:26:53;22.50;95.60
45619;DHT22;31343;47.520;19.144;2023-06-14T08:29:19;23.10;96.40
45619;DHT22;31343;47.520;19.144;2023-06-14T08:31:46;22.90;95.30
45619;DHT22;31343;47.520;19.144;2023-06-14T08:34:12;22.50;94.90
45619;DHT22;31343;47.520;19.144;2023-06-14T08:36:38;22.50;95.40
45619;DHT22;31343;47.520;19.144;2023-06-14T08:39:03;22.30;94.60
45619;DHT22;31343;47.520;19.144;2023-06-14T08:41:29;22.30;95.50
45619;DHT22;31343;47.520;19.144;2023-06-14T08:43:56;22.70;95.90
45619;DHT22;31343;47.520;19.144;2023-06-14T08:46:25;23.00;95.20
45619;DHT22;31343;47.520;19.144;2023-06-14T08:48:55;23.40;94.90
45619;DHT22;31343;47.520;19.144;2023-06-14T08:51:25;23.10;93.80
45619;DHT22;31343;47.520;19.144;2023-06-14T08:53:54;22.50;94.70
45619;DHT22;31343;47.520;19.144;2023-06-14T08:56:26;22.20;94.90
45619;DHT22;31343;47.520;19.144;2023-06-14T08:58:53;21.90;95.70
45619;DHT22;31343;47.520;19.144;2023-06-14T09:01:20;22.10;95.90
45619;DHT22;31343;47.520;19.144;2023-06-14T09:03:48;22.10;95.40
45619;DHT22;31343;47.520;19.144;2023-06-14T09:06:15;21.90;95.00
45619;DHT22;31343;47.520;19.144;2023-06-14T09:08:45;21.80;94.80
45619;DHT22;31343;47.520;19.144;2023-06-14T09:11:13;21.90;95.90
45619;DHT22;31343;47.520;19.144;2023-06-14T09:13:40;22.00;95.10
45619;DHT22;31343;47.520;19.144;2023-06-14T09:16:07;22.00;94.90
45619;DHT22;31343;47.520;19.144;2023-06-14T09:18:39;22.20;94.70
45619;DHT22;31343;47.520;19.144;2023-06-14T09:21:06;22.50;94.70
45619;DHT22;31343;47.520;19.144;2023-06-14T09:23:43;22.50;93.80
45619;DHT22;31343;47.520;19.144;2023-06-14T09:26:18;22.80;94.70
45619;DHT22;31343;47.520;19.144;2023-06-14T09:28:49;23.10;93.70
45619;DHT22;31343;47.520;19.144;2023-06-14T09:31:17;23.30;92.80
45619;DHT22;31343;47.520;19.144;2023-06-14T09:33:47;23.10;92.50
45619;DHT22;31343;47.520;19.144;2023-06-14T09:36:21;22.70;93.80
45619;DHT22;31343;47.520;19.144;2023-06-14T09:38:55;22.80;92.90
45619;DHT22;31343;47.520;19.144;2023-06-14T09:41:31;23.00;92.40
45619;DHT22;31343;47.520;19.144;2023-06-14T09:43:58;22.90;91.60
45619;DHT22;31343;47.520;19.144;2023-06-14T09:46:27;23.00;90.70
45619;DHT22;31343;47.520;19.144;2023-06-14T09:48:53;22.70;92.00
45619;DHT22;31343;47.520;19.144;2023-06-14T09:51:20;22.70;92.10
45619;DHT22;31343;47.520;19.144;2023-06-14T09:53:49;22.90;92.90
45619;DHT22;31343;47.520;19.144;2023-06-14T09:56:26;22.70;92.00
45619;DHT22;31343;47.520;19.144;2023-06-14T09:58:55;22.70;91.00
45619;DHT22;31343;47.520;19.144;2023-06-14T10:01:22;23.00;92.60
45619;DHT22;31343;47.520;19.144;2023-06-14T10:03:50;23.10;91.60
45619;DHT22;31343;47.520;19.144;2023-06-14T10:06:18;23.10;90.50
45619;DHT22;31343;47.520;19.144;2023-06-14T10:08:46;23.20;92.00
45619;DHT22;31343;47.520;19.144;2023-06-14T10:11:13;23.80;91.30
45619;DHT22;31343;47.520;19.144;2023-06-14T10:13:39;24.20;89.30
45619;DHT22;31343;47.520;19.144;2023-06-14T10:16:20;24.80;88.30
45619;DHT22;31343;47.520;19.144;2023-06-14T10:18:59;25.20;83.10
45619;DHT22;31343;47.520;19.144;2023-06-14T10:24:05;24.20;81.40
45619;DHT22;31343;47.520;19.144;2023-06-14T10:26:30;23.90;82.30
45619;DHT22;31343;47.520;19.144;2023-06-14T10:29:01;24.30;85.20
45619;DHT22;31343;47.520;19.144;2023-06-14T10:31:44;24.50;84.20
45619;DHT22;31343;47.520;19.144;2023-06-14T10:34:11;24.70;83.40
45619;DHT22;31343;47.520;19.144;2023-06-14T10:36:40;24.80;83.40
45619;DHT22;31343;47.520;19.144;2023-06-14T10:39:09;24.90;82.50
45619;DHT22;31343;47.520;19.144;2023-06-14T10:41:38;24.70;80.00
45619;DHT22;31343;47.520;19.144;2023-06-14T10:46:54;25.40;77.80
45619;DHT22;31343;47.520;19.144;2023-06-14T10:49:39;26.10;78.60
45619;DHT22;31343;47.520;19.144;2023-06-14T10:52:15;27.10;76.10
45619;DHT22;31343;47.520;19.144;2023-06-14T10:55:15;28.00;72.50
45619;DHT22;31343;47.520;19.144;2023-06-14T10:57:47;28.40;72.80
45619;DHT22;31343;47.520;19.144;2023-06-14T11:00:16;28.60;69.80
45619;DHT22;31343;47.520;19.144;2023-06-14T11:05:21;27.40;71.80
45619;DHT22;31343;47.520;19.144;2023-06-14T11:08:14;26.80;71.90
45619;DHT22;31343;47.520;19.144;2023-06-14T11:10:43;27.00;70.80
45619;DHT22;31343;47.520;19.144;2023-06-14T11:13:11;26.50;70.30
45619;DHT22;31343;47.520;19.144;2023-06-14T11:15:37;26.00;72.10
45619;DHT22;31343;47.520;19.144;2023-06-14T11:18:07;25.50;72.40
45619;DHT22;31343;47.520;19.144;2023-06-14T11:20:36;25.10;73.20
45619;DHT22;31343;47.520;19.144;2023-06-14T11:23:03;24.90;75.80
45619;DHT22;31343;47.520;19.144;2023-06-14T11:25:29;24.70;77.00
45619;DHT22;31343;47.520;19.144;2023-06-14T11:27:56;24.60;79.10
45619;DHT22;31343;47.520;19.144;2023-06-14T11:30:22;24.70;76.90
45619;DHT22;31343;47.520;19.144;2023-06-14T11:32:50;24.80;78.00
45619;DHT22;31343;47.520;19.144;2023-06-14T11:35:16;25.10;78.20
45619;DHT22;31343;47.520;19.144;2023-06-14T11:37:42;25.30;75.80
45619;DHT22;31343;47.520;19.144;2023-06-14T11:40:11;26.10;74.60
45619;DHT22;31343;47.520;19.144;2023-06-14T11:42:38;26.40;74.30
45619;DHT22;31343;47.520;19.144;2023-06-14T11:45:07;26.00;73.00
45619;DHT22;31343;47.520;19.144;2023-06-14T11:47:37;25.50;74.90
45619;DHT22;31343;47.520;19.144;2023-06-14T11:50:04;25.10;74.90
45619;DHT22;31343;47.520;19.144;2023-06-14T11:52:31;24.70;74.60
45619;DHT22;31343;47.520;19.144;2023-06-14T11:54:57;24.40;76.90
45619;DHT22;31343;47.520;19.144;2023-06-14T11:57:25;24.50;78.60
45619;DHT22;31343;47.520;19.144;2023-06-14T11:59:51;24.70;77.70
45619;DHT22;31343;47.520;19.144;2023-06-14T12:02:18;24.70;78.30
45619;DHT22;31343;47.520;19.144;2023-06-14T12:04:47;24.70;77.60
45619;DHT22;31343;47.520;19.144;2023-06-14T12:07:17;24.70;78.50
45619;DHT22;31343;47.520;19.144;2023-06-14T12:12:23;24.70;80.20
45619;DHT22;31343;47.520;19.144;2023-06-14T12:14:51;24.70;80.50
45619;DHT22;31343;47.520;19.144;2023-06-14T12:17:17;24.60;80.60
45619;DHT22;31343;47.520;19.144;2023-06-14T12:19:45;24.60;80.00
45619;DHT22;31343;47.520;19.144;2023-06-14T12:22:11;25.40;81.10
45619;DHT22;31343;47.520;19.144;2023-06-14T12:24:38;26.90;79.00
45619;DHT22;31343;47.520;19.144;2023-06-14T12:27:05;28.20;77.10
45619;DHT22;31343;47.520;19.144;2023-06-14T12:29:31;28.30;74.00
45619;DHT22;31343;47.520;19.144;2023-06-14T12:31:57;27.10;74.20
45619;DHT22;31343;47.520;19.144;2023-06-14T12:34:24;27.00;76.40
45619;DHT22;31343;47.520;19.144;2023-06-14T12:36:50;26.60;75.70
45619;DHT22;31343;47.520;19.144;2023-06-14T12:39:16;26.40;77.10
45619;DHT22;31343;47.520;19.144;2023-06-14T12:41:42;25.90;77.60
45619;DHT22;31343;47.520;19.144;2023-06-14T12:44:08;25.90;78.90
45619;DHT22;31343;47.520;19.144;2023-06-14T12:46:34;25.50;78.10
45619;DHT22;31343;47.520;19.144;2023-06-14T12:49:05;25.30;79.20
45619;DHT22;31343;47.520;19.144;2023-06-14T12:51:32;25.50;78.90
45619;DHT22;31343;47.520;19.144;2023-06-14T12:53:58;25.50;77.90
45619;DHT22;31343;47.520;19.144;2023-06-14T12:56:23;25.20;78.80
45619;DHT22;31343;47.520;19.144;2023-06-14T12:58:49;25.30;78.80
45619;DHT22;31343;47.520;19.144;2023-06-14T13:01:15;25.60;77.50
45619;DHT22;31343;47.520;19.144;2023-06-14T13:03:41;25.90;78.50
45619;DHT22;31343;47.520;19.144;2023-06-14T13:06:06;26.10;77.40
45619;DHT22;31343;47.520;19.144;2023-06-14T13:08:32;25.90;76.90
45619;DHT22;31343;47.520;19.144;2023-06-14T13:10:58;25.80;75.90
45619;DHT22;31343;47.520;19.144;2023-06-14T13:13:24;25.60;77.30
45619;DHT22;31343;47.520;19.144;2023-06-14T13:15:50;25.80;77.60
45619;DHT22;31343;47.520;19.144;2023-06-14T13:18:16;25.90;77.50
45619;DHT22;31343;47.520;19.144;2023-06-14T13:20:42;25.90;77.70
45619;DHT22;31343;47.520;19.144;2023-06-14T13:23:08;25.40;76.60
45619;DHT22;31343;47.520;19.144;2023-06-14T13:25:35;25.30;76.10
45619;DHT22;31343;47.520;19.144;2023-06-14T13:28:01;25.20;76.60
45619;DHT22;31343;47.520;19.144;2023-06-14T13:30:27;25.00;75.80
45619;DHT22;31343;47.520;19.144;2023-06-14T13:32:53;25.10;76.60
45619;DHT22;31343;47.520;19.144;2023-06-14T13:35:19;25.00;75.40
45619;DHT22;31343;47.520;19.144;2023-06-14T13:37:45;25.00;76.90
45619;DHT22;31343;47.520;19.144;2023-06-14T13:40:11;25.20;77.00
45619;DHT22;31343;47.520;19.144;2023-06-14T13:42:37;25.30;75.80
45619;DHT22;31343;47.520;19.144;2023-06-14T13:45:04;25.50;76.70
45619;DHT22;31343;47.520;19.144;2023-06-14T13:47:30;25.60;75.80
45619;DHT22;31343;47.520;19.144;2023-06-14T13:49:56;25.70;74.90
45619;DHT22;31343;47.520;19.144;2023-06-14T13:52:22;25.70;76.50
45619;DHT22;31343;47.520;19.144;2023-06-14T13:54:48;25.70;75.70
45619;DHT22;31343;47.520;19.144;2023-06-14T13:57:14;25.70;74.30
45619;DHT22;31343;47.520;19.144;2023-06-14T13:59:40;25.60;73.70
45619;DHT22;31343;47.520;19.144;2023-06-14T14:02:07;25.60;75.70
45619;DHT22;31343;47.520;19.144;2023-06-14T14:04:34;25.60;74.50
45619;DHT22;31343;47.520;19.144;2023-06-14T14:07:04;25.60;75.30
45619;DHT22;31343;47.520;19.144;2023-06-14T14:09:30;25.50;74.90
45619;DHT22;31343;47.520;19.144;2023-06-14T14:11:56;25.40;75.20
45619;DHT22;31343;47.520;19.144;2023-06-14T14:14:21;25.30;73.90
45619;DHT22;31343;47.520;19.144;2023-06-14T14:16:49;25.30;73.90
45619;DHT22;31343;47.520;19.144;2023-06-14T14:19:17;25.20;73.80
45619;DHT22;31343;47.520;19.144;2023-06-14T14:21:44;25.10;72.50
45619;DHT22;31343;47.520;19.144;2023-06-14T14:24:10;25.10;73.50
45619;DHT22;31343;47.520;19.144;2023-06-14T14:26:36;24.90;72.60
45619;DHT22;31343;47.520;19.144;2023-06-14T14:29:02;24.80;73.50
45619;DHT22;31343;47.520;19.144;2023-06-14T14:31:28;24.80;73.70
45619;DHT22;31343;47.520;19.144;2023-06-14T14:33:54;24.90;73.80
45619;DHT22;31343;47.520;19.144;2023-06-14T14:36:20;24.90;74.90
45619;DHT22;31343;47.520;19.144;2023-06-14T14:38:45;24.80;74.40
45619;DHT22;31343;47.520;19.144;2023-06-14T14:41:13;24.70;74.60
45619;DHT22;31343;47.520;19.144;2023-06-14T14:43:39;24.60;70.40
45619;DHT22;31343;47.520;19.144;2023-06-14T14:46:05;24.60;71.20
45619;DHT22;31343;47.520;19.144;2023-06-14T14:48:31;24.70;72.20
45619;DHT22;31343;47.520;19.144;2023-06-14T14:50:57;24.70;72.60
45619;DHT22;31343;47.520;19.144;2023-06-14T14:53:23;24.80;70.00
45619;DHT22;31343;47.520;19.144;2023-06-14T14:55:49;24.90;72.30
45619;DHT22;31343;47.520;19.144;2023-06-14T14:58:15;24.90;70.50
45619;DHT22;31343;47.520;19.144;2023-06-14T15:00:44;24.90;71.70
45619;DHT22;31343;47.520;19.144;2023-06-14T15:03:10;24.80;68.90
45619;DHT22;31343;47.520;19.144;2023-06-14T15:05:36;24.80;69.70
45619;DHT22;31343;47.520;19.144;2023-06-14T15:08:03;24.70;70.20
45619;DHT22;31343;47.520;19.144;2023-06-14T15:10:30;24.50;71.10
45619;DHT22;31343;47.520;19.144;2023-06-14T15:12:56;24.60;71.10
45619;DHT22;31343;47.520;19.144;2023-06-14T15:15:22;24.40;69.60
45619;DHT22;31343;47.520;19.144;2023-06-14T15:17:48;24.50;70.30
45619;DHT22;31343;47.520;19.144;2023-06-14T15:20:14;24.50;69.80
45619;DHT22;31343;47.520;19.144;2023-06-14T15:22:40;24.50;71.10
45619;DHT22;31343;47.520;19.144;2023-06-14T15:25:07;24.50;71.30
45619;DHT22;31343;47.520;19.144;2023-06-14T15:27:32;24.50;68.50
45619;DHT22;31343;47.520;19.144;2023-06-14T15:29:58;24.40;69.80
45619;DHT22;31343;47.520;19.144;2023-06-14T15:32:24;24.40;70.10